Portada
METAR-TAF:

METAR-TAF

Aeropuertos :

Aeropuerto Internacional de Christchurch

Christchurch, Nueva Zelanda

latitud: 43-29S, longitud: 172-33E, altitud: 38 m

Observación

El informe se hizo hace 10 horas y 50 minutos, a las 05:00 UTC
Viento 5 kt del sur
Temperatura 9°C
Humedad 76%
Presión 985 hPa
Visibilidad 10 km o más

METAR: NZCH 210500Z AUTO 19005KT 9999 SCT075/// 09/05 Q0985 NOSIG

Hora: 03:50 (15:50 UTC)

Pronóstico

El informe se hizo hace 10 horas y 49 minutos, a las 05:01 UTC
Pronóstico válido del 21 a las 06 UTC al 22 a las 06 UTC
Viento 10 kt del sur-suroeste
Visibilidad 10 km o más
Escasas nubes a una altura de 4000 ft
Evolucionando progresivamente
del 21 a las 07 UTC al 21 a las 09 UTC
Viento 5 kt del oeste-noroeste
Probabilidad 30%
del 21 a las 15 UTC al 21 a las 19 UTC
Visibilidad: 0500 m
niebla

TAF: NZCH 210501Z 2106/2206 20010KT 9999 FEW040 BECMG 2107/2109 30005KT PROB30 2115/2119 0500 FG

Observaciones y pronósticos meteorológicos de más de 4000 aeropuertos (mensajes METAR y TAF).

Los puntos amarillos y rojos representan las estaciones disponibles.

Ponga el ratón en el punto deseado para ver el nombre de la estación.

Haga clic para ver las observaciones y los pronósticos meteorológicos.

Para cambiar el mapa : haga clic en los botones verdes con una cruz de color negro para hacer un zoom, en el botón verde con un guión para alejar o en las flechas verdes para mapas adyacentes.


METAR-TAF: